Mura (Bages)





Hora UTC 07:05
Temperatura 7.4 ºC
Humedad 79.0 %
Presión 1007.8 hPa
Pluja 0.0 mm
Velocidad viento 0.0 km/h
Dirección viento

Datos diarios 2023-03-24



Hora UTC (invierno +1h; verano +2h)
Temperatura (ºC) Humedad (%) Presión (hPa) Velocidad viento (km/h) Precipitación (mm)
Hora UTC Aire Humedad Presión Vel. Dir. Vel. Max Dir. Intent. máx 5 min.
00:05 12.2 52.0 1007.3 0.0 0.0 0.0
00:15 12.1 54.0 1007.3 0.0 0.0 0.0
00:25 11.7 59.0 1007.4 0.0 0.0 0.0
00:35 11.6 61.0 1007.2 0.0 0.0 0.0
00:45 11.3 63.0 1007.2 0.0 0.0 0.0
00:55 11.1 63.0 1007.6 0.0 0.0 0.0
01:05 11.1 64.0 1007.3 0.0 0.0 0.0
01:15 10.9 63.0 1007.3 0.0 0.0 0.0
01:25 10.7 64.0 1007.6 0.0 0.0 0.0
01:35 10.4 65.0 1007.3 0.0 0.0 0.0
01:45 10.1 66.0 1007.3 0.0 0.0 0.0
01:55 9.8 66.0 1007.2 0.0 0.0 0.0
02:05 9.5 67.0 1007.3 0.0 0.0 0.0
02:15 8.9 69.0 1007.3 0.0 0.0 0.0
02:25 8.4 69.0 1007.1 0.0 0.0 0.0
02:35 8.2 70.0 1007.3 0.0 0.0 0.0
02:45 7.8 72.0 1007.3 0.0 0.0 0.0
02:55 7.6 72.0 1007.1 0.0 0.0 0.0
03:05 7.3 72.0 1006.9 0.0 0.0 0.0
03:15 7.3 73.0 1006.9 0.0 0.0 0.0
03:25 7.1 73.0 1006.7 0.0 0.0 0.0
03:35 7.0 74.0 1006.8 0.0 0.0 0.0
03:45 6.7 74.0 1006.8 0.0 0.0 0.0
03:55 6.3 77.0 1006.8 0.0 0.0 0.0
04:05 6.3 77.0 1006.7 0.0 0.0 0.0
04:15 6.2 77.0 1006.7 0.0 0.0 0.0
04:25 6.1 77.0 1006.7 0.0 0.0 0.0
04:35 6.2 78.0 1006.7 0.0 0.0 0.0
04:45 6.2 78.0 1006.7 0.0 0.0 0.0
04:55 6.0 78.0 1006.6 0.0 3.2 0.0
05:05 6.0 79.0 1006.7 0.0 3.2 0.0
05:15 5.9 79.0 1006.7 0.0 3.2 0.0
05:25 5.7 81.0 1007.1 0.0 3.2 0.0
05:35 5.8 80.0 1007.2 0.0 3.2 0.0
05:45 5.4 82.0 1007.2 0.0 3.2 0.0
05:55 5.6 83.0 1007.2 0.0 3.2 0.0
06:05 5.7 81.0 1007.3 0.0 3.2 0.0
06:15 5.6 81.0 1007.3 0.0 3.2 0.0
06:25 5.5 83.0 1007.3 0.0 3.2 0.0
06:35 5.7 83.0 1007.6 0.0 3.2 0.0
06:45 5.9 82.0 1007.6 0.0 3.2 0.0
06:55 6.4 82.0 1007.8 0.0 3.2 0.0
07:05 7.4 79.0 1007.8 0.0 3.2 0.0
Máxima 12.2 83.0 1007.8 0.0 3.2 0.0
Mínima 5.4 52.0 1006.6
Total 0.0